METAR Data
IDs: Format: Raw Decoded Include TAF

Data at: 1959 UTC 13 Nov 2019

KMLB 131953Z 02015G22KT 9SM -RA BKN022 OVC027 20/17 A3004 RMK AO2 RAE05B49 SLP171 P0000 T02000167

KMLB 131736Z 1318/1418 02016G24KT 6SM -DZ SCT014 SCT019 OVC025
  TEMPO 1318/1320 4SM -RA BR BKN014 BKN019
  FM140200 05013KT P6SM VCSH BKN030
  FM141400 08011KT P6SM SCT035


KTIX 131946Z 03010G22KT 7SM OVC030 22/14 A3010

KTIX 131736Z 1318/1418 02017G24KT 6SM -DZ BKN026 OVC035
  FM140000 03012KT P6SM VCSH BKN030
  FM140300 06008KT P6SM BKN030
  FM141400 09009KT P6SM SCT035


KCOF 131956Z AUTO 02019G27KT 10SM FEW025 SCT033 20/18 A3007 RMK AO2 PK WND 03028/33 SLP187 T02030182 TSNO $

TAF KCOF 131900Z 1319/1501 04018G25KT 9999 BKN025 QNH3005INS
  BECMG 1322/1323 05012G20KT 9999 SCT035 BKN050 QNH3007INS
  BECMG 1405/1406 07010G15KT 9999 SCT030 BKN050 QNH3005INS
  BECMG 1411/1412 09012KT 9999 BKN030 QNH3002INS TX25/1418Z TN21/1323Z


KVRB 131953Z 02010G20KT 3SM HZ BKN029 OVC036 22/19 A3004 RMK AO2 RAE24 SLP172 P0001 T02220189

KVRB 131736Z 1318/1418 03014G22KT 6SM -DZ SCT016 SCT025 BKN045
  TEMPO 1318/1320 4SM -RA BR BKN016 BKN025
  FM140100 06012KT P6SM VCSH BKN030
  FM141400 09011KT P6SM SCT035